Time;durP1;ratioP1;P1;durP2;ratioP2;P2;SDS_P1;SDS_P2;PMS_P1;PMS_P2;Temp;Humidity;BMP_temperature;BMP_pressure;BME280_temperature;BME280_humidity;BME280_pressure;Samples;Min_cycle;Max_cycle;Signal;HPM_P1;HPM_P2
2023/04/17 00:00:36;;;;;;;;;;;;;;;;;;5054758;28;19995;-69
2023/04/17 00:03:02;;;;;;;;;;;;;;;;;;5054362;28;19976;-68
2023/04/17 00:05:30;;;;;;;;;;;;;;;;;;5054403;28;20008;-68
2023/04/17 00:07:56;;;;;;;;;;;;;;;;;;5054963;28;19955;-68
2023/04/17 00:10:22;;;;;;;;;;;;;;;;;;5054335;28;19963;-68
2023/04/17 00:12:48;;;;;;;;;;;;;;;;;;5054278;28;20443;-68
2023/04/17 00:15:14;;;;;;;;;;;;;;;;;;5054235;28;19956;-68
2023/04/17 00:17:40;;;;;;;;;;;;;;;;;;5054425;28;19963;-68
2023/04/17 00:20:12;;;;;;;;;;;;;;;;;;5054376;28;20006;-68
2023/04/17 00:22:38;;;;;;;;;;;;;;;;;;5053618;28;19999;-68
2023/04/17 00:25:04;;;;;;;;;;;;;;;;;;5054360;28;19956;-68
2023/04/17 00:27:30;;;;;;;;;;;;;;;;;;5053995;28;20335;-69
2023/04/17 00:29:56;;;;;;;;;;;;;;;;;;5054067;28;19975;-68
2023/04/17 00:32:21;;;;;;;;;;;;;;;;;;5054194;28;19959;-68
2023/04/17 00:34:49;;;;;;;;;;;;;;;;;;5054758;28;20400;-68
2023/04/17 00:37:15;;;;;;;;;;;;;;;;;;5053887;28;19954;-68
2023/04/17 00:39:40;;;;;;;;;;;;;;;;;;5053836;28;20021;-69
2023/04/17 00:42:06;;;;;;;;;;;;;;;;;;5053825;28;19955;-69
2023/04/17 00:44:32;;;;;;;;;;;;;;;;;;5053993;28;20070;-68
2023/04/17 00:46:58;;;;;;;;;;;;;;;;;;5053735;28;19956;-68
2023/04/17 00:49:24;;;;;;;;;;;;;;;;;;5053672;28;19956;-69
2023/04/17 00:51:50;;;;;;;;;;;;;;;;;;5054229;28;19955;-68
2023/04/17 00:54:17;;;;;;;;;;;;;;;;;;5054191;28;20473;-68
2023/04/17 00:56:43;;;;;;;;;;;;;;;;;;5053630;28;19956;-69
2023/04/17 00:59:09;;;;;;;;;;;;;;;;;;5053619;28;19971;-69
2023/04/17 01:01:35;;;;;;;;;;;;;;;;;;5053850;28;19961;-68
2023/04/17 01:04:01;;;;;;;;;;;;;;;;;;5053743;28;20439;-67
2023/04/17 01:06:27;;;;;;;;;;;;;;;;;;5054082;28;19955;-69
2023/04/17 01:08:53;;;;;;;;;;;;;;;;;;5053488;28;19956;-68
2023/04/17 01:11:19;;;;;;;;;;;;;;;;;;5053734;28;19956;-69
2023/04/17 01:13:45;;;;;;;;;;;;;;;;;;5053708;28;19963;-68
2023/04/17 01:16:11;;;;;;;;;;;;;;;;;;5055251;28;19963;-69
2023/04/17 01:18:36;;;;;;;;;;;;;;;;;;5057539;28;20327;-68
2023/04/17 01:21:02;;;;;;;;;;;;;;;;;;5057782;28;20008;-68
2023/04/17 01:23:28;;;;;;;;;;;;;;;;;;5057691;28;19972;-67
2023/04/17 01:25:54;;;;;;;;;;;;;;;;;;5057388;28;19956;-67
2023/04/17 01:28:20;;;;;;;;;;;;;;;;;;5057373;28;19963;-68
2023/04/17 01:30:46;;;;;;;;;;;;;;;;;;5057397;28;20355;-69
2023/04/17 01:33:12;;;;;;;;;;;;;;;;;;5057550;28;20013;-68
2023/04/17 01:35:38;;;;;;;;;;;;;;;;;;5057239;28;19979;-69
2023/04/17 01:38:03;;;;;;;;;;;;;;;;;;5057489;28;19956;-68
2023/04/17 01:40:29;;;;;;;;;;;;;;;;;;5057142;28;20072;-69
2023/04/17 01:42:55;;;;;;;;;;;;;;;;;;5057562;28;20435;-68
2023/04/17 01:45:22;;;;;;;;;;;;;;;;;;5057346;28;19955;-68
2023/04/17 01:47:48;;;;;;;;;;;;;;;;;;5056333;28;20424;-68
2023/04/17 01:50:14;;;;;;;;;;;;;;;;;;5056956;28;19956;-68
2023/04/17 01:52:40;;;;;;;;;;;;;;;;;;5056882;28;20010;-69
2023/04/17 01:55:06;;;;;;;;;;;;;;;;;;5056876;28;20332;-68
2023/04/17 01:57:32;;;;;;;;;;;;;;;;;;5056813;28;19962;-67
2023/04/17 01:59:58;;;;;;;;;;;;;;;;;;5057071;28;19956;-67
2023/04/17 02:02:24;;;;;;;;;;;;;;;;;;5056658;28;19955;-69
2023/04/17 02:04:50;;;;;;;;;;;;;;;;;;5056683;28;20042;-68
2023/04/17 02:07:15;;;;;;;;;;;;;;;;;;5056925;28;20006;-67
2023/04/17 02:09:41;;;;;;;;;;;;;;;;;;5056567;28;19955;-68
2023/04/17 02:12:07;;;;;;;;;;;;;;;;;;5056847;28;19956;-67
2023/04/17 02:14:33;;;;;;;;;;;;;;;;;;5056729;28;20478;-67
2023/04/17 02:16:59;;;;;;;;;;;;;;;;;;5057057;28;19962;-67
2023/04/17 02:19:25;;;;;;;;;;;;;;;;;;5056412;28;20117;-68
2023/04/17 02:21:51;;;;;;;;;;;;;;;;;;5056375;28;19992;-68
2023/04/17 02:24:17;;;;;;;;;;;;;;;;;;5056297;28;19982;-68
2023/04/17 02:26:45;;;;;;;;;;;;;;;;;;5055378;28;21466;-68
2023/04/17 02:29:11;;;;;;;;;;;;;;;;;;5055812;28;20463;-68
2023/04/17 02:31:36;;;;;;;;;;;;;;;;;;5056479;28;19960;-69
2023/04/17 02:34:02;;;;;;;;;;;;;;;;;;5056678;28;19955;-68
2023/04/17 02:36:28;;;;;;;;;;;;;;;;;;5056100;28;19960;-68
2023/04/17 02:38:54;;;;;;;;;;;;;;;;;;5056023;28;20010;-68
2023/04/17 02:41:20;;;;;;;;;;;;;;;;;;5056578;28;20041;-68
2023/04/17 02:43:46;;;;;;;;;;;;;;;;;;5055929;28;20000;-67
2023/04/17 02:46:12;;;;;;;;;;;;;;;;;;5056518;28;19956;-68
2023/04/17 02:48:38;;;;;;;;;;;;;;;;;;5056157;28;19956;-69
2023/04/17 02:51:04;;;;;;;;;;;;;;;;;;5056079;28;20002;-68
2023/04/17 02:53:30;;;;;;;;;;;;;;;;;;5055740;28;19956;-68
2023/04/17 02:55:56;;;;;;;;;;;;;;;;;;5055731;28;19982;-68
2023/04/17 02:58:22;;;;;;;;;;;;;;;;;;5055992;28;19963;-68
2023/04/17 03:00:47;;;;;;;;;;;;;;;;;;5055655;28;19964;-69
2023/04/17 03:03:13;;;;;;;;;;;;;;;;;;5055546;28;20002;-68
2023/04/17 03:05:40;;;;;;;;;;;;;;;;;;5055826;28;19956;-68
2023/04/17 03:08:06;;;;;;;;;;;;;;;;;;5054042;28;19964;-68
2023/04/17 03:10:32;;;;;;;;;;;;;;;;;;5055793;28;20047;-68
2023/04/17 03:12:58;;;;;;;;;;;;;;;;;;5055375;28;20067;-68
2023/04/17 03:15:24;;;;;;;;;;;;;;;;;;5055384;28;20000;-69
2023/04/17 03:17:50;;;;;;;;;;;;;;;;;;5053830;28;19960;-67
2023/04/17 03:20:16;;;;;;;;;;;;;;;;;;5055288;28;19967;-68
2023/04/17 03:22:42;;;;;;;;;;;;;;;;;;5055016;28;19999;-68
2023/04/17 03:25:08;;;;;;;;;;;;;;;;;;5055466;28;19956;-67
2023/04/17 03:27:34;;;;;;;;;;;;;;;;;;5055205;28;20006;-69
2023/04/17 03:30:00;;;;;;;;;;;;;;;;;;5055360;28;20459;-69
2023/04/17 03:32:26;;;;;;;;;;;;;;;;;;5055614;28;19966;-68
2023/04/17 03:34:52;;;;;;;;;;;;;;;;;;5054994;28;19963;-68
2023/04/17 03:37:18;;;;;;;;;;;;;;;;;;5055222;28;19995;-68
2023/04/17 03:39:43;;;;;;;;;;;;;;;;;;5054582;28;19956;-68
2023/04/17 03:42:13;;;;;;;;;;;;;;;;;;5055106;28;19956;-68
2023/04/17 03:44:39;;;;;;;;;;;;;;;;;;5055589;28;19980;-68
2023/04/17 03:47:05;;;;;;;;;;;;;;;;;;5055005;28;19963;-68
2023/04/17 03:49:30;;;;;;;;;;;;;;;;;;5054709;28;19963;-68
2023/04/17 03:51:56;;;;;;;;;;;;;;;;;;5054919;28;19956;-68
2023/04/17 03:54:22;;;;;;;;;;;;;;;;;;5054865;28;19962;-67
2023/04/17 03:56:48;;;;;;;;;;;;;;;;;;5055167;28;19999;-68
2023/04/17 03:59:14;;;;;;;;;;;;;;;;;;5054537;28;20475;-68
2023/04/17 04:01:41;;;;;;;;;;;;;;;;;;5054499;28;20037;-69
2023/04/17 04:04:07;;;;;;;;;;;;;;;;;;5054374;28;19975;-68
2023/04/17 04:06:33;;;;;;;;;;;;;;;;;;5054404;28;19963;-68
2023/04/17 04:08:59;;;;;;;;;;;;;;;;;;5054337;28;19956;-69
2023/04/17 04:11:25;;;;;;;;;;;;;;;;;;5054337;28;19962;-68
2023/04/17 04:13:51;;;;;;;;;;;;;;;;;;5054553;28;19963;-67
2023/04/17 04:16:16;;;;;;;;;;;;;;;;;;5054210;28;19955;-69
2023/04/17 04:18:42;;;;;;;;;;;;;;;;;;5054773;28;19956;-68
2023/04/17 04:21:10;;;;;;;;;;;;;;;;;;5054189;28;19987;-68
2023/04/17 04:23:39;;;;;;;;;;;;;;;;;;5054375;28;19998;-69
2023/04/17 04:26:04;;;;;;;;;;;;;;;;;;5054072;28;20454;-67
2023/04/17 04:28:30;;;;;;;;;;;;;;;;;;5054571;28;19987;-68
2023/04/17 04:30:57;;;;;;;;;;;;;;;;;;5054165;28;19972;-68
2023/04/17 04:33:23;;;;;;;;;;;;;;;;;;5053932;28;19962;-67
2023/04/17 04:35:50;;;;;;;;;;;;;;;;;;5054180;28;19956;-68
2023/04/17 04:38:16;;;;;;;;;;;;;;;;;;5053902;28;19963;-68
2023/04/17 04:40:48;;;;;;;;;;;;;;;;;;5053890;28;20328;-69
2023/04/17 04:43:14;;;;;;;;;;;;;;;;;;5054289;28;19980;-69
2023/04/17 04:45:40;;;;;;;;;;;;;;;;;;5053777;28;19955;-67
2023/04/17 04:48:06;;;;;;;;;;;;;;;;;;5054052;28;20416;-67
2023/04/17 04:50:32;;;;;;;;;;;;;;;;;;5053328;28;19960;-68
2023/04/17 04:52:58;;;;;;;;;;;;;;;;;;5053690;28;20320;-68
2023/04/17 04:55:25;;;;;;;;;;;;;;;;;;5053668;28;20004;-69
2023/04/17 04:57:53;;;;;;;;;;;;;;;;;;5053567;28;19956;-68
2023/04/17 05:00:19;;;;;;;;;;;;;;;;;;5052343;28;19963;-69
2023/04/17 05:02:45;;;;;;;;;;;;;;;;;;5054071;28;19983;-68
2023/04/17 05:05:11;;;;;;;;;;;;;;;;;;5053528;28;20328;-68
2023/04/17 05:07:37;;;;;;;;;;;;;;;;;;5053793;28;19960;-69
2023/04/17 05:10:03;;;;;;;;;;;;;;;;;;5053495;28;19965;-68
2023/04/17 05:12:29;;;;;;;;;;;;;;;;;;5053474;28;19960;-68
2023/04/17 05:14:54;;;;;;;;;;;;;;;;;;5053746;28;19982;-68
2023/04/17 05:17:20;;;;;;;;;;;;;;;;;;5053445;28;19956;-67
2023/04/17 05:19:46;;;;;;;;;;;;;;;;;;5053433;28;19956;-67
2023/04/17 05:22:12;;;;;;;;;;;;;;;;;;5053414;28;19991;-68
2023/04/17 05:24:38;;;;;;;;;;;;;;;;;;5053580;28;19976;-69
2023/04/17 05:27:04;;;;;;;;;;;;;;;;;;5053592;28;19956;-67
2023/04/17 05:29:31;;;;;;;;;;;;;;;;;;5053495;28;19984;-69
2023/04/17 05:31:57;;;;;;;;;;;;;;;;;;5053297;28;20313;-68
2023/04/17 05:34:23;;;;;;;;;;;;;;;;;;5053825;28;20093;-67
2023/04/17 05:36:49;;;;;;;;;;;;;;;;;;5053260;28;19956;-68
2023/04/17 05:39:15;;;;;;;;;;;;;;;;;;5053829;28;20006;-67
2023/04/17 05:41:41;;;;;;;;;;;;;;;;;;5053249;28;20472;-68
2023/04/17 05:44:07;;;;;;;;;;;;;;;;;;5053364;28;19982;-69
2023/04/17 05:46:33;;;;;;;;;;;;;;;;;;5053428;28;20006;-68
2023/04/17 05:48:59;;;;;;;;;;;;;;;;;;5053167;28;19955;-68
2023/04/17 05:51:25;;;;;;;;;;;;;;;;;;5053405;28;19956;-68
2023/04/17 05:53:51;;;;;;;;;;;;;;;;;;5053057;28;20003;-68
2023/04/17 05:56:17;;;;;;;;;;;;;;;;;;5053362;28;20469;-68
2023/04/17 05:58:43;;;;;;;;;;;;;;;;;;5053102;28;19960;-68
2023/04/17 06:01:11;;;;;;;;;;;;;;;;;;5053383;28;19960;-67
2023/04/17 06:03:37;;;;;;;;;;;;;;;;;;5056577;28;19982;-68
2023/04/17 06:06:03;;;;;;;;;;;;;;;;;;5056985;28;20324;-68
2023/04/17 06:08:29;;;;;;;;;;;;;;;;;;5056667;28;19954;-68
2023/04/17 06:10:55;;;;;;;;;;;;;;;;;;5056982;28;20010;-67
2023/04/17 06:13:23;;;;;;;;;;;;;;;;;;5056610;28;19956;-68
2023/04/17 06:15:49;;;;;;;;;;;;;;;;;;5057102;28;19963;-68
2023/04/17 06:18:16;;;;;;;;;;;;;;;;;;5056745;28;19960;-68
2023/04/17 06:20:42;;;;;;;;;;;;;;;;;;5056412;28;20447;-67
2023/04/17 06:23:08;;;;;;;;;;;;;;;;;;5056090;28;19995;-68
2023/04/17 06:25:33;;;;;;;;;;;;;;;;;;5056658;28;19959;-68
2023/04/17 06:28:00;;;;;;;;;;;;;;;;;;5056315;28;19971;-67
2023/04/17 06:30:26;;;;;;;;;;;;;;;;;;5056455;28;19982;-68
2023/04/17 06:32:52;;;;;;;;;;;;;;;;;;5056216;28;19955;-69
2023/04/17 06:35:17;;;;;;;;;;;;;;;;;;5056752;28;20304;-69
2023/04/17 06:37:43;;;;;;;;;;;;;;;;;;5056129;28;19956;-69
2023/04/17 06:40:11;;;;;;;;;;;;;;;;;;5056376;28;19955;-69
2023/04/17 06:42:37;;;;;;;;;;;;;;;;;;5056715;28;19967;-70
2023/04/17 06:45:02;;;;;;;;;;;;;;;;;;5056269;28;19956;-70
2023/04/17 06:47:29;;;;;;;;;;;;;;;;;;5055979;28;19955;-69
2023/04/17 06:49:56;;;;;;;;;;;;;;;;;;5056191;28;19966;-68
2023/04/17 06:52:22;;;;;;;;;;;;;;;;;;5055822;28;19956;-69
2023/04/17 06:54:48;;;;;;;;;;;;;;;;;;5056075;28;19966;-68
2023/04/17 06:57:15;;;;;;;;;;;;;;;;;;5055914;28;19967;-69
2023/04/17 06:59:41;;;;;;;;;;;;;;;;;;5055693;28;19962;-69
2023/04/17 07:02:07;;;;;;;;;;;;;;;;;;5055954;28;20039;-69
2023/04/17 07:04:33;;;;;;;;;;;;;;;;;;5055284;28;19975;-68
2023/04/17 07:06:59;;;;;;;;;;;;;;;;;;5043556;28;20335;-71
2023/04/17 07:09:25;;;;;;;;;;;;;;;;;;5035154;28;19959;-70
2023/04/17 07:11:51;;;;;;;;;;;;;;;;;;5051114;28;20025;-69
2023/04/17 07:14:17;;;;;;;;;;;;;;;;;;5055003;28;20419;-68
2023/04/17 07:16:43;;;;;;;;;;;;;;;;;;5055964;28;19956;-72
2023/04/17 07:19:09;;;;;;;;;;;;;;;;;;5055216;28;20045;-68
2023/04/17 07:21:35;;;;;;;;;;;;;;;;;;5055336;28;20017;-68
2023/04/17 07:24:01;;;;;;;;;;;;;;;;;;5035442;28;20543;-72
2023/04/17 07:26:27;;;;;;;;;;;;;;;;;;5043205;28;20045;-72
2023/04/17 07:28:53;;;;;;;;;;;;;;;;;;5054478;28;20416;-71
2023/04/17 07:31:20;;;;;;;;;;;;;;;;;;5055059;28;20331;-72
2023/04/17 07:33:46;;;;;;;;;;;;;;;;;;5054932;28;20424;-73
2023/04/17 07:36:12;;;;;;;;;;;;;;;;;;5055086;28;19982;-72
2023/04/17 07:38:38;;;;;;;;;;;;;;;;;;5054980;28;19955;-72
2023/04/17 07:41:04;;;;;;;;;;;;;;;;;;5054601;28;20301;-67
2023/04/17 07:43:30;;;;;;;;;;;;;;;;;;5055209;28;19975;-71
2023/04/17 07:45:57;;;;;;;;;;;;;;;;;;5051438;28;19967;-72
2023/04/17 07:48:23;;;;;;;;;;;;;;;;;;5054698;28;20047;-74
2023/04/17 07:50:49;;;;;;;;;;;;;;;;;;5051477;28;20007;-70
2023/04/17 07:53:15;;;;;;;;;;;;;;;;;;5047436;28;19960;-69
2023/04/17 07:55:41;;;;;;;;;;;;;;;;;;5034748;28;20314;-69
2023/04/17 07:58:08;;;;;;;;;;;;;;;;;;5043314;28;19967;-67
2023/04/17 08:00:34;;;;;;;;;;;;;;;;;;5033957;28;19966;-68
2023/04/17 08:03:00;;;;;;;;;;;;;;;;;;5034716;28;20071;-69
2023/04/17 08:05:26;;;;;;;;;;;;;;;;;;5034511;28;19960;-67
2023/04/17 08:07:52;;;;;;;;;;;;;;;;;;5042377;28;19964;-68
2023/04/17 08:10:18;;;;;;;;;;;;;;;;;;5054327;28;20379;-72
2023/04/17 08:12:44;;;;;;;;;;;;;;;;;;5044235;28;19960;-73
2023/04/17 08:15:10;;;;;;;;;;;;;;;;;;5050851;28;20083;-75
2023/04/17 08:17:36;;;;;;;;;;;;;;;;;;5053404;28;20439;-69
2023/04/17 08:20:06;;;;;;;;;;;;;;;;;;5053283;28;19964;-72
2023/04/17 08:22:32;;;;;;;;;;;;;;;;;;5038878;28;19991;-70
2023/04/17 08:24:58;;;;;;;;;;;;;;;;;;5034341;28;20454;-69
2023/04/17 08:27:24;;;;;;;;;;;;;;;;;;5039838;28;19966;-68
2023/04/17 08:29:52;;;;;;;;;;;;;;;;;;5053954;28;20054;-67
2023/04/17 08:32:18;;;;;;;;;;;;;;;;;;5054015;28;19960;-67
2023/04/17 08:34:44;;;;;;;;;;;;;;;;;;5051824;28;20093;-69
2023/04/17 08:37:10;;;;;;;;;;;;;;;;;;5046859;28;19971;-68
2023/04/17 08:39:36;;;;;;;;;;;;;;;;;;5034342;28;19961;-68
2023/04/17 08:42:04;;;;;;;;;;;;;;;;;;5033970;28;19957;-69
2023/04/17 08:44:30;;;;;;;;;;;;;;;;;;5034160;28;20395;-70
2023/04/17 08:46:57;;;;;;;;;;;;;;;;;;5033548;28;19983;-70
2023/04/17 08:49:23;;;;;;;;;;;;;;;;;;5033824;28;19957;-73
2023/04/17 08:51:48;;;;;;;;;;;;;;;;;;5033333;28;20040;-72
2023/04/17 08:54:14;;;;;;;;;;;;;;;;;;5045915;28;19963;-72
2023/04/17 08:56:40;;;;;;;;;;;;;;;;;;5053614;28;20050;-73
2023/04/17 08:59:06;;;;;;;;;;;;;;;;;;5053929;28;19965;-74
2023/04/17 09:01:33;;;;;;;;;;;;;;;;;;5033882;28;20341;-76
2023/04/17 09:03:59;;;;;;;;;;;;;;;;;;5033094;28;20023;-78
2023/04/17 09:06:26;;;;;;;;;;;;;;;;;;5033963;28;19962;-76
2023/04/17 09:08:52;;;;;;;;;;;;;;;;;;5036210;28;20002;-73
2023/04/17 09:11:18;;;;;;;;;;;;;;;;;;5053637;28;19956;-74
2023/04/17 09:13:44;;;;;;;;;;;;;;;;;;5053432;28;20376;-73
2023/04/17 09:16:11;;;;;;;;;;;;;;;;;;5051541;28;19956;-73
2023/04/17 09:18:37;;;;;;;;;;;;;;;;;;5039852;28;20020;-71
2023/04/17 09:21:03;;;;;;;;;;;;;;;;;;5044186;28;20438;-73
2023/04/17 09:23:29;;;;;;;;;;;;;;;;;;5051905;28;19979;-71
2023/04/17 09:25:55;;;;;;;;;;;;;;;;;;5053655;28;19956;-71
2023/04/17 09:28:21;;;;;;;;;;;;;;;;;;5053360;28;20059;-71
2023/04/17 09:30:47;;;;;;;;;;;;;;;;;;5050302;28;19990;-71
2023/04/17 09:33:12;;;;;;;;;;;;;;;;;;5033415;28;19960;-71
2023/04/17 09:35:38;;;;;;;;;;;;;;;;;;5033417;28;19956;-71
2023/04/17 09:38:04;;;;;;;;;;;;;;;;;;5036325;28;20017;-71
2023/04/17 09:40:30;;;;;;;;;;;;;;;;;;5053517;28;19963;-73
2023/04/17 09:42:56;;;;;;;;;;;;;;;;;;5047452;28;20470;-69
2023/04/17 09:45:23;;;;;;;;;;;;;;;;;;5056967;28;20050;-71
2023/04/17 09:47:49;;;;;;;;;;;;;;;;;;5057444;28;20014;-71
2023/04/17 09:50:16;;;;;;;;;;;;;;;;;;5056794;28;20424;-73
2023/04/17 09:52:42;;;;;;;;;;;;;;;;;;5054333;28;19964;-74
2023/04/17 09:55:09;;;;;;;;;;;;;;;;;;5049165;28;20003;-73
2023/04/17 09:57:35;;;;;;;;;;;;;;;;;;5036999;28;20431;-73
2023/04/17 10:00:04;;;;;;;;;;;;;;;;;;5037407;28;19956;-74
2023/04/17 10:02:30;;;;;;;;;;;;;;;;;;5037142;28;20029;-72
2023/04/17 10:04:56;;;;;;;;;;;;;;;;;;5036206;28;20479;-69
2023/04/17 10:07:22;;;;;;;;;;;;;;;;;;5057228;28;19960;-68
2023/04/17 10:09:47;;;;;;;;;;;;;;;;;;5056313;28;19992;-68
2023/04/17 10:12:13;;;;;;;;;;;;;;;;;;5056507;28;20338;-69
2023/04/17 10:14:41;;;;;;;;;;;;;;;;;;5056505;28;19956;-69
2023/04/17 10:17:07;;;;;;;;;;;;;;;;;;5055407;28;19998;-69
2023/04/17 10:19:34;;;;;;;;;;;;;;;;;;5051011;28;19960;-71
2023/04/17 10:22:02;;;;;;;;;;;;;;;;;;5036414;28;20074;-73
2023/04/17 10:24:28;;;;;;;;;;;;;;;;;;5035114;28;20003;-72
2023/04/17 10:26:53;;;;;;;;;;;;;;;;;;5036203;28;20433;-72
2023/04/17 10:29:20;;;;;;;;;;;;;;;;;;5036478;28;20455;-73
2023/04/17 10:31:46;;;;;;;;;;;;;;;;;;5036783;28;19964;-72
2023/04/17 10:34:11;;;;;;;;;;;;;;;;;;5036031;28;20374;-74
2023/04/17 10:36:37;;;;;;;;;;;;;;;;;;5035919;28;20029;-73
2023/04/17 10:39:03;;;;;;;;;;;;;;;;;;5036590;28;20046;-73
2023/04/17 10:41:29;;;;;;;;;;;;;;;;;;5036204;28;19956;-69
2023/04/17 10:43:55;;;;;;;;;;;;;;;;;;5035892;28;20339;-70
2023/04/17 10:46:21;;;;;;;;;;;;;;;;;;5036043;28;19956;-72
2023/04/17 10:48:48;;;;;;;;;;;;;;;;;;5035270;28;20007;-72
2023/04/17 10:51:14;;;;;;;;;;;;;;;;;;5035983;28;20454;-72
2023/04/17 10:53:40;;;;;;;;;;;;;;;;;;5035908;28;19957;-72
2023/04/17 10:56:06;;;;;;;;;;;;;;;;;;5035856;28;20421;-74
2023/04/17 10:58:32;;;;;;;;;;;;;;;;;;5035806;28;20055;-71
2023/04/17 11:00:58;;;;;;;;;;;;;;;;;;5036314;28;19956;-72
2023/04/17 11:03:24;;;;;;;;;;;;;;;;;;5035934;28;20078;-72
2023/04/17 11:05:51;;;;;;;;;;;;;;;;;;5035662;28;20039;-72
2023/04/17 11:08:17;;;;;;;;;;;;;;;;;;5035909;28;19956;-72
2023/04/17 11:10:43;;;;;;;;;;;;;;;;;;5035602;28;19963;-70
2023/04/17 11:13:08;;;;;;;;;;;;;;;;;;5035486;28;19963;-73
2023/04/17 11:15:34;;;;;;;;;;;;;;;;;;5035511;28;20029;-71
2023/04/17 11:18:00;;;;;;;;;;;;;;;;;;5035779;28;20047;-69
2023/04/17 11:20:26;;;;;;;;;;;;;;;;;;5035392;28;20004;-70
2023/04/17 11:22:52;;;;;;;;;;;;;;;;;;5034946;28;20511;-70
2023/04/17 11:25:18;;;;;;;;;;;;;;;;;;5035905;28;20405;-72
2023/04/17 11:27:44;;;;;;;;;;;;;;;;;;5035312;28;19956;-70
2023/04/17 11:30:10;;;;;;;;;;;;;;;;;;5035158;28;19979;-74
2023/04/17 11:32:36;;;;;;;;;;;;;;;;;;5035465;28;19960;-69
2023/04/17 11:35:02;;;;;;;;;;;;;;;;;;5035163;28;20318;-70
2023/04/17 11:37:28;;;;;;;;;;;;;;;;;;5035442;28;20010;-70
2023/04/17 11:39:54;;;;;;;;;;;;;;;;;;5035081;28;19999;-69
2023/04/17 11:42:20;;;;;;;;;;;;;;;;;;5035567;28;19963;-73
2023/04/17 11:44:45;;;;;;;;;;;;;;;;;;5035173;28;19976;-72
2023/04/17 11:47:11;;;;;;;;;;;;;;;;;;5034913;28;20527;-73
2023/04/17 11:49:37;;;;;;;;;;;;;;;;;;5034920;28;19956;-72
2023/04/17 11:52:03;;;;;;;;;;;;;;;;;;5034832;28;20337;-72
2023/04/17 11:54:29;;;;;;;;;;;;;;;;;;5034713;28;19996;-71
2023/04/17 11:56:55;;;;;;;;;;;;;;;;;;5035346;28;20359;-74
2023/04/17 11:59:21;;;;;;;;;;;;;;;;;;5034603;28;19979;-71
2023/04/17 12:01:47;;;;;;;;;;;;;;;;;;5035093;28;20397;-73
2023/04/17 12:04:13;;;;;;;;;;;;;;;;;;5034808;28;19976;-72
2023/04/17 12:06:39;;;;;;;;;;;;;;;;;;5034569;28;20438;-71
2023/04/17 12:09:05;;;;;;;;;;;;;;;;;;5034490;28;19956;-72
2023/04/17 12:11:31;;;;;;;;;;;;;;;;;;5034710;28;20055;-73
2023/04/17 12:13:57;;;;;;;;;;;;;;;;;;5034696;28;20387;-74
2023/04/17 12:16:23;;;;;;;;;;;;;;;;;;5034389;28;20340;-72
2023/04/17 12:18:49;;;;;;;;;;;;;;;;;;5036877;28;19964;-66
2023/04/17 12:21:15;;;;;;;;;;;;;;;;;;5053550;28;19994;-67
2023/04/17 12:23:41;;;;;;;;;;;;;;;;;;5041979;28;19978;-71
2023/04/17 12:26:07;;;;;;;;;;;;;;;;;;5053848;28;19956;-73
2023/04/17 12:28:33;;;;;;;;;;;;;;;;;;5053861;28;19956;-69
2023/04/17 12:30:59;;;;;;;;;;;;;;;;;;5053894;28;19972;-70
2023/04/17 12:33:25;;;;;;;;;;;;;;;;;;5052712;28;20046;-69
2023/04/17 12:35:51;;;;;;;;;;;;;;;;;;5054062;28;19999;-69
2023/04/17 12:38:17;;;;;;;;;;;;;;;;;;5054224;28;20049;-68
2023/04/17 12:40:44;;;;;;;;;;;;;;;;;;5033929;28;19972;-69
2023/04/17 12:43:10;;;;;;;;;;;;;;;;;;5034340;28;19976;-69
2023/04/17 12:45:36;;;;;;;;;;;;;;;;;;5050489;28;19972;-70
2023/04/17 12:48:02;;;;;;;;;;;;;;;;;;5033639;28;20010;-67
2023/04/17 12:50:28;;;;;;;;;;;;;;;;;;5033391;28;19979;-72
2023/04/17 12:52:54;;;;;;;;;;;;;;;;;;5032616;28;20010;-68
2023/04/17 12:55:20;;;;;;;;;;;;;;;;;;5033094;28;20002;-71
2023/04/17 12:57:46;;;;;;;;;;;;;;;;;;5033165;28;19956;-68
2023/04/17 13:00:12;;;;;;;;;;;;;;;;;;5042751;28;20502;-70
2023/04/17 13:02:38;;;;;;;;;;;;;;;;;;5039974;28;20460;-71
2023/04/17 13:05:04;;;;;;;;;;;;;;;;;;5032775;28;20086;-70
2023/04/17 13:07:30;;;;;;;;;;;;;;;;;;5033161;28;20054;-71
2023/04/17 13:09:56;;;;;;;;;;;;;;;;;;5033281;28;20010;-70
2023/04/17 13:12:22;;;;;;;;;;;;;;;;;;5037396;28;19967;-69
2023/04/17 13:14:48;;;;;;;;;;;;;;;;;;5043081;28;19964;-70
2023/04/17 13:17:14;;;;;;;;;;;;;;;;;;5040159;28;20004;-68
2023/04/17 13:19:40;;;;;;;;;;;;;;;;;;5040218;28;19978;-70
2023/04/17 13:22:06;;;;;;;;;;;;;;;;;;5039960;28;20487;-71
2023/04/17 13:24:33;;;;;;;;;;;;;;;;;;5040052;28;19976;-70
2023/04/17 13:27:00;;;;;;;;;;;;;;;;;;5039745;28;19964;-71
2023/04/17 13:29:26;;;;;;;;;;;;;;;;;;5050392;28;20086;-72
2023/04/17 13:31:52;;;;;;;;;;;;;;;;;;5056034;28;20008;-72
2023/04/17 13:34:18;;;;;;;;;;;;;;;;;;5040025;28;19992;-72
2023/04/17 13:36:44;;;;;;;;;;;;;;;;;;5043345;28;20046;-71
2023/04/17 13:39:10;;;;;;;;;;;;;;;;;;5052582;28;20005;-69
2023/04/17 13:41:36;;;;;;;;;;;;;;;;;;5047249;28;19960;-69
2023/04/17 13:44:02;;;;;;;;;;;;;;;;;;5052104;28;19976;-69
2023/04/17 13:46:28;;;;;;;;;;;;;;;;;;5046239;28;20339;-70
2023/04/17 13:48:54;;;;;;;;;;;;;;;;;;5048222;28;19955;-70
2023/04/17 13:51:20;;;;;;;;;;;;;;;;;;5060058;28;19961;-70
2023/04/17 13:53:46;;;;;;;;;;;;;;;;;;5044777;28;19967;-69
2023/04/17 13:56:11;;;;;;;;;;;;;;;;;;5042879;28;19971;-71
2023/04/17 13:58:39;;;;;;;;;;;;;;;;;;5053915;28;19964;-71
2023/04/17 14:01:05;;;;;;;;;;;;;;;;;;5060317;28;19964;-72
2023/04/17 14:03:31;;;;;;;;;;;;;;;;;;5059940;28;20073;-67
2023/04/17 14:05:57;;;;;;;;;;;;;;;;;;5059801;28;20408;-69
2023/04/17 14:08:22;;;;;;;;;;;;;;;;;;5059770;28;19955;-69
2023/04/17 14:10:48;;;;;;;;;;;;;;;;;;5059326;28;19959;-71
2023/04/17 14:13:15;;;;;;;;;;;;;;;;;;5048593;28;20416;-70
2023/04/17 14:15:41;;;;;;;;;;;;;;;;;;5059008;28;20438;-68
2023/04/17 14:18:08;;;;;;;;;;;;;;;;;;5060166;28;19960;-68
2023/04/17 14:20:34;;;;;;;;;;;;;;;;;;5059666;28;19956;-72
2023/04/17 14:23:00;;;;;;;;;;;;;;;;;;5058378;28;20004;-68
2023/04/17 14:25:26;;;;;;;;;;;;;;;;;;5056477;28;19967;-70
2023/04/17 14:27:52;;;;;;;;;;;;;;;;;;5056994;28;20466;-68
2023/04/17 14:30:18;;;;;;;;;;;;;;;;;;5056563;28;19971;-72
2023/04/17 14:32:44;;;;;;;;;;;;;;;;;;5056359;28;20310;-69
2023/04/17 14:35:10;;;;;;;;;;;;;;;;;;5056311;28;19955;-70
2023/04/17 14:37:36;;;;;;;;;;;;;;;;;;5047030;28;19990;-68
2023/04/17 14:40:03;;;;;;;;;;;;;;;;;;5036227;28;19964;-71
2023/04/17 14:42:29;;;;;;;;;;;;;;;;;;5039324;28;19960;-69
2023/04/17 14:44:55;;;;;;;;;;;;;;;;;;5048734;28;19975;-67
2023/04/17 14:47:21;;;;;;;;;;;;;;;;;;5063032;28;20418;-68
2023/04/17 14:49:47;;;;;;;;;;;;;;;;;;5056208;28;19967;-68
2023/04/17 14:52:13;;;;;;;;;;;;;;;;;;5055832;28;20447;-69
2023/04/17 14:54:39;;;;;;;;;;;;;;;;;;5075904;28;19998;-68
2023/04/17 14:57:05;;;;;;;;;;;;;;;;;;5075890;28;20297;-69
2023/04/17 14:59:31;;;;;;;;;;;;;;;;;;5075207;28;19962;-68
2023/04/17 15:01:56;;;;;;;;;;;;;;;;;;5055990;28;20054;-69
2023/04/17 15:04:22;;;;;;;;;;;;;;;;;;5055615;28;19975;-70
2023/04/17 15:06:48;;;;;;;;;;;;;;;;;;5056196;28;20390;-69
2023/04/17 15:09:14;;;;;;;;;;;;;;;;;;5040731;28;19960;-69
2023/04/17 15:11:40;;;;;;;;;;;;;;;;;;5035937;28;20026;-68
2023/04/17 15:14:06;;;;;;;;;;;;;;;;;;5035856;28;20011;-67
2023/04/17 15:16:32;;;;;;;;;;;;;;;;;;5035513;28;19956;-71
2023/04/17 15:18:58;;;;;;;;;;;;;;;;;;5035044;28;20301;-72
2023/04/17 15:21:25;;;;;;;;;;;;;;;;;;5041243;28;19999;-74
2023/04/17 15:23:51;;;;;;;;;;;;;;;;;;5055536;28;20464;-74
2023/04/17 15:26:17;;;;;;;;;;;;;;;;;;5056204;28;19975;-70
2023/04/17 15:28:43;;;;;;;;;;;;;;;;;;5062988;28;19955;-66
2023/04/17 15:31:08;;;;;;;;;;;;;;;;;;5074434;28;19979;-67
2023/04/17 15:33:34;;;;;;;;;;;;;;;;;;5054288;28;20065;-67
2023/04/17 15:36:00;;;;;;;;;;;;;;;;;;5053141;28;19987;-66
2023/04/17 15:38:26;;;;;;;;;;;;;;;;;;5055816;28;19960;-66
2023/04/17 15:40:52;;;;;;;;;;;;;;;;;;5055024;28;19955;-66
2023/04/17 15:43:18;;;;;;;;;;;;;;;;;;5055193;28;20025;-67
2023/04/17 15:45:44;;;;;;;;;;;;;;;;;;5054925;28;20379;-67
2023/04/17 15:48:10;;;;;;;;;;;;;;;;;;5055153;28;19956;-67
2023/04/17 15:50:36;;;;;;;;;;;;;;;;;;5054829;28;19978;-67
2023/04/17 15:53:02;;;;;;;;;;;;;;;;;;5054749;28;19962;-66
2023/04/17 15:55:27;;;;;;;;;;;;;;;;;;5054959;28;20054;-66
2023/04/17 15:57:53;;;;;;;;;;;;;;;;;;5054902;28;20003;-67
2023/04/17 16:00:19;;;;;;;;;;;;;;;;;;5055159;28;19987;-66
2023/04/17 16:02:48;;;;;;;;;;;;;;;;;;5054774;28;19962;-67
2023/04/17 16:05:14;;;;;;;;;;;;;;;;;;5054574;28;19956;-66
2023/04/17 16:07:40;;;;;;;;;;;;;;;;;;5054783;28;19982;-67
2023/04/17 16:10:12;;;;;;;;;;;;;;;;;;5054380;28;19955;-67
2023/04/17 16:12:38;;;;;;;;;;;;;;;;;;5052887;28;20335;-67
2023/04/17 16:15:04;;;;;;;;;;;;;;;;;;5054672;28;20451;-67
2023/04/17 16:17:30;;;;;;;;;;;;;;;;;;5054306;28;19956;-67
2023/04/17 16:19:57;;;;;;;;;;;;;;;;;;5054289;28;19999;-67
2023/04/17 16:22:22;;;;;;;;;;;;;;;;;;5054114;28;20437;-66
2023/04/17 16:24:48;;;;;;;;;;;;;;;;;;5054929;28;20025;-66
2023/04/17 16:27:14;;;;;;;;;;;;;;;;;;5054153;28;19956;-67
2023/04/17 16:29:40;;;;;;;;;;;;;;;;;;5052702;28;19976;-67
2023/04/17 16:32:06;;;;;;;;;;;;;;;;;;5054121;28;20009;-67
2023/04/17 16:34:32;;;;;;;;;;;;;;;;;;5054303;28;20042;-67
2023/04/17 16:36:58;;;;;;;;;;;;;;;;;;5053951;28;20049;-66